Friday, December 19, 2014, 7:53 AM EST

KLNS, Lancaster Airport

Location: Lititz, PA, United States Lat: 40.117
Local Time: 7:53 AM EST (12:53 GMT) Lon: -76.3
Time Zone: US/Eastern Elev: 403 ft

Show me the last for .
Show Decoded

2014-12-19 06:53 METAR KLNS 191153Z 29011KT 10SM OVC031 01/M04 A3007 RMK AO2 SLP185 T00111044
                 10011 20006 53006 =
2014-12-19 05:53 METAR KLNS 191053Z AUTO 29009KT 10SM OVC032 01/M04 A3005 RMK AO2 SLP179
                 T00061044 =
2014-12-19 04:53 METAR KLNS 190953Z AUTO 28010KT 10SM OVC035 01/M04 A3004 RMK AO2 SLP177
                 T00061044 =
2014-12-19 04:33 METAR KLNS 190933Z AUTO 28011KT 10SM OVC033 01/M04 A3004 RMK AO2 T00061044 =
2014-12-19 03:53 METAR KLNS 190853Z AUTO 28008KT 10SM OVC029 01/M04 A3005 RMK AO2 SLP179
                 T00061044 50003 =
2014-12-19 03:16 METAR KLNS 190816Z AUTO 28009KT 10SM OVC031 01/M04 A3005 RMK AO2 T00061044 =
2014-12-19 02:53 METAR KLNS 190753Z AUTO 29008KT 10SM OVC029 01/M04 A3005 RMK AO2 SLP180
                 T00111044 =
2014-12-19 01:53 METAR KLNS 190653Z AUTO 28012KT 10SM OVC031 01/M04 A3004 RMK AO2 SLP177
                 T00111044 =
2014-12-19 01:35 METAR KLNS 190635Z AUTO 28009KT 10SM OVC030 01/M04 A3004 RMK AO2 T00111044 =
2014-12-19 00:53 METAR KLNS 190553Z AUTO 29009KT 10SM OVC029 01/M04 A3004 RMK AO2 SLP176
                 T00111044 10017 20011 58008 =
2014-12-18 23:53 METAR KLNS 190453Z AUTO 30010KT 10SM OVC028 01/M04 A3005 RMK AO2 SLP179
                 T00111044 400280000 =
2014-12-18 22:53 METAR KLNS 190353Z 29009KT 10SM OVC027 01/M04 A3006 RMK AO2 SLP183 T00111044 =
2014-12-18 21:53 METAR KLNS 190253Z 30009KT 10SM OVC027 01/M04 A3006 RMK AO2 SLP184 T00111044
                 55003 =
2014-12-18 20:53 METAR KLNS 190153Z 30010KT 10SM OVC029 02/M04 A3006 RMK AO2 SLP183 T00171044 =
2014-12-18 20:49 METAR KLNS 190149Z 31010KT 10SM OVC029 02/M04 A3006 RMK AO2 =
2014-12-18 19:53 METAR KLNS 190053Z 30010KT 10SM OVC030 02/M04 A3007 RMK AO2 SLP187 T00171044 =
2014-12-18 19:32 METAR KLNS 190032Z 29009KT 10SM OVC030 01/M04 A3006 RMK AO2 T00111044 =
2014-12-18 18:53 METAR KLNS 182353Z 30010KT 10SM OVC029 02/M04 A3005 RMK AO2 SLP181 T00171044
                 10022 20011 53000 =
2014-12-18 18:16 METAR KLNS 182316Z 30012KT 10SM OVC029 01/M04 A3005 RMK AO2 T00111044 =
2014-12-18 17:53 METAR KLNS 182253Z 31011KT 10SM OVC030 01/M04 A3005 RMK AO2 SLP178 T00111044 =
2014-12-18 16:53 METAR KLNS 182153Z 31008KT 10SM OVC031 01/M04 A3005 RMK AO2 SLP181 T00111044 =
2014-12-18 15:53 METAR KLNS 182053Z 30012KT 10SM OVC033 02/M04 A3005 RMK AO2 SLP180 T00171044
                 55002 =
2014-12-18 14:53 METAR KLNS 181953Z 29015G22KT 10SM OVC035 02/M04 A3005 RMK AO2 SLP180 T00221044
                 =
2014-12-18 13:53 METAR KLNS 181853Z 29018KT 10SM FEW029 OVC034 02/M05 A3006 RMK AO2 SLP181
                 T00221050 =
2014-12-18 12:53 METAR KLNS 181753Z 28013KT 10SM OVC038 02/M04 A3006 RMK AO2 SLP183 T00221044
                 10028 20006 58016 =
2014-12-18 11:53 METAR KLNS 181653Z 28013KT 10SM OVC036 02/M04 A3008 RMK AO2 SLP190 T00171044 =
2014-12-18 10:53 METAR KLNS 181553Z 28014KT 10SM OVC033 01/M04 A3010 RMK AO2 SLP195 T00061044 =
2014-12-18 09:53 METAR KLNS 181453Z 32013KT 10SM BKN031 OVC039 01/M05 A3011 RMK AO2 SLP199
                 T00061050 53016 =

Support USWX by starting your Amazon purchase here.